createdAt,value
2023-02-16T00:05:44.649Z,100.00
2023-02-16T00:15:50.612Z,100.00
2023-02-16T00:25:52.781Z,100.00
2023-02-16T00:35:55.964Z,100.00
2023-02-16T00:46:00.688Z,100.00
2023-02-16T00:56:04.744Z,100.00
2023-02-16T01:06:29.720Z,100.00
2023-02-16T01:16:42.826Z,100.00
2023-02-16T01:26:49.955Z,100.00
2023-02-16T01:36:53.203Z,100.00
2023-02-16T01:47:21.925Z,100.00
2023-02-16T01:57:39.243Z,100.00
2023-02-16T02:08:12.061Z,100.00
2023-02-16T02:18:17.206Z,100.00
2023-02-16T02:29:01.075Z,100.00
2023-02-16T02:39:10.403Z,100.00
2023-02-16T02:49:17.192Z,100.00
2023-02-16T02:59:40.180Z,100.00
2023-02-16T03:09:44.763Z,100.00
2023-02-16T03:20:10.952Z,100.00
2023-02-16T03:30:16.381Z,100.00
2023-02-16T03:40:31.966Z,100.00
2023-02-16T03:50:40.022Z,100.00
2023-02-16T04:00:45.093Z,100.00
2023-02-16T04:10:47.419Z,100.00
2023-02-16T04:20:52.533Z,100.00
2023-02-16T04:31:03.520Z,100.00
2023-02-16T04:41:09.548Z,100.00
2023-02-16T04:51:20.876Z,100.00
2023-02-16T05:01:24.729Z,100.00
2023-02-16T05:11:46.044Z,100.00
2023-02-16T05:21:53.160Z,100.00
2023-02-16T05:31:57.969Z,100.00
2023-02-16T05:42:02.048Z,100.00
2023-02-16T05:52:08.049Z,100.00
2023-02-16T06:02:14.105Z,100.00
2023-02-16T06:12:18.365Z,100.00
2023-02-16T06:22:22.095Z,100.00
2023-02-16T06:32:29.454Z,100.00
2023-02-16T06:42:37.319Z,100.00
2023-02-16T06:52:39.585Z,100.00
2023-02-16T07:02:43.600Z,100.00
2023-02-16T07:12:46.470Z,97.92
2023-02-16T07:22:50.907Z,93.28
2023-02-16T07:32:58.394Z,88.56
2023-02-16T07:43:07.970Z,87.16
2023-02-16T07:53:13.112Z,87.58
2023-02-16T08:03:20.167Z,87.49
2023-02-16T08:13:24.705Z,85.99
2023-02-16T08:23:26.930Z,84.05
2023-02-16T08:33:34.862Z,82.22
2023-02-16T08:43:37.039Z,81.92
2023-02-16T08:53:46.562Z,81.90
2023-02-16T09:03:50.416Z,81.05
2023-02-16T09:13:52.586Z,81.37
2023-02-16T09:23:56.603Z,80.58
2023-02-16T09:34:08.494Z,79.59
2023-02-16T09:44:33.966Z,79.32
2023-02-16T09:54:57.851Z,80.32
2023-02-16T10:05:31.208Z,80.87
2023-02-16T10:15:35.037Z,80.75
2023-02-16T10:25:57.776Z,80.89
2023-02-16T10:36:03.158Z,82.36
2023-02-16T10:46:08.662Z,81.26
2023-02-16T10:56:34.991Z,80.74
2023-02-16T11:06:40.142Z,80.34
2023-02-16T11:16:42.283Z,81.29
2023-02-16T11:26:44.723Z,82.49
2023-02-16T11:36:47.531Z,81.57
2023-02-16T11:46:50.377Z,80.85
2023-02-16T11:57:15.781Z,81.69
2023-02-16T12:07:52.066Z,81.49
2023-02-16T12:18:34.875Z,81.77
2023-02-16T12:29:01.612Z,81.26
2023-02-16T12:39:37.128Z,82.44
2023-02-16T12:49:56.342Z,83.41
2023-02-16T13:00:01.079Z,83.69
2023-02-16T13:10:17.641Z,84.91
2023-02-16T13:20:24.902Z,85.51
2023-02-16T13:30:48.760Z,88.35
2023-02-16T13:41:28.630Z,86.22
2023-02-16T13:51:42.305Z,86.83
2023-02-16T14:01:54.413Z,86.39
2023-02-16T14:11:57.698Z,87.89
2023-02-16T14:22:12.595Z,88.39
2023-02-16T14:32:26.847Z,89.89
2023-02-16T14:42:35.663Z,90.68
2023-02-16T14:52:51.207Z,91.10
2023-02-16T15:02:58.211Z,92.14
2023-02-16T15:13:00.324Z,92.73
2023-02-16T15:23:21.764Z,93.06
2023-02-16T15:33:39.676Z,94.14
2023-02-16T15:43:50.388Z,95.30
2023-02-16T15:54:00.939Z,96.91
2023-02-16T16:04:25.577Z,97.80
2023-02-16T16:14:28.630Z,97.87
2023-02-16T16:24:35.730Z,97.87
2023-02-16T16:34:39.987Z,98.23
2023-02-16T16:45:13.872Z,98.14
2023-02-16T16:55:44.244Z,97.30
2023-02-16T17:05:51.067Z,96.54
2023-02-16T17:16:07.493Z,96.27
2023-02-16T17:26:12.298Z,96.04
2023-02-16T17:36:16.019Z,95.50
2023-02-16T17:46:19.465Z,95.10
2023-02-16T17:56:23.141Z,95.06
2023-02-16T18:06:32.112Z,95.30
2023-02-16T18:16:36.687Z,95.54
2023-02-16T18:26:40.107Z,96.35
2023-02-16T18:36:46.564Z,96.24
2023-02-16T18:46:52.473Z,97.18
2023-02-16T18:56:55.134Z,97.84
2023-02-16T19:07:00.817Z,98.14
2023-02-16T19:17:06.121Z,98.43
2023-02-16T19:27:10.487Z,98.67
2023-02-16T19:37:15.368Z,99.58
2023-02-16T19:47:20.349Z,100.00
2023-02-16T19:57:25.950Z,100.00
2023-02-16T20:07:31.081Z,100.00
2023-02-16T20:17:33.590Z,100.00
2023-02-16T20:27:36.435Z,100.00
2023-02-16T20:37:40.361Z,100.00
2023-02-16T20:47:48.182Z,100.00
2023-02-16T20:57:52.521Z,100.00
2023-02-16T21:07:59.051Z,100.00
2023-02-16T21:18:01.222Z,100.00
2023-02-16T21:28:05.749Z,100.00
2023-02-16T21:38:13.756Z,100.00
2023-02-16T21:48:34.473Z,100.00
2023-02-16T21:58:36.655Z,100.00
2023-02-16T22:08:42.488Z,100.00
2023-02-16T22:18:47.830Z,100.00
2023-02-16T22:28:50.702Z,100.00
2023-02-16T22:38:53.905Z,100.00
2023-02-16T22:48:58.710Z,100.00
2023-02-16T22:59:03.496Z,100.00
2023-02-16T23:09:09.234Z,100.00
2023-02-16T23:19:18.180Z,100.00
2023-02-16T23:29:22.605Z,100.00
2023-02-16T23:39:28.746Z,100.00
2023-02-16T23:49:34.790Z,100.00
2023-02-16T23:59:37.122Z,100.00
